Time;durP1;ratioP1;P1;durP2;ratioP2;P2;SDS_P1;SDS_P2;PMS_P1;PMS_P2;Temp;Humidity;BMP_temperature;BMP_pressure;BME280_temperature;BME280_humidity;BME280_pressure;Samples;Min_cycle;Max_cycle;Signal;HPM_P1;HPM_P2
2023/01/19 00:00:18;;;;;;;14.18;6.97;;;;;;;;;;5009282;28;20045;-61
2023/01/19 00:02:46;;;;;;;18.27;7.25;;;;;;;;;;5008627;28;20040;-61
2023/01/19 00:05:12;;;;;;;11.60;6.45;;;;;;;;;;5009522;28;20033;-62
2023/01/19 00:07:37;;;;;;;12.55;6.78;;;;;;;;;;5007235;28;20258;-61
2023/01/19 00:10:03;;;;;;;11.43;7.07;;;;;;;;;;5009698;28;20101;-61
2023/01/19 00:12:28;;;;;;;12.95;6.80;;;;;;;;;;5008834;28;20298;-61
2023/01/19 00:14:53;;;;;;;13.25;6.93;;;;;;;;;;5008617;28;20083;-60
2023/01/19 00:17:19;;;;;;;11.13;6.70;;;;;;;;;;5003612;28;20401;-61
2023/01/19 00:19:44;;;;;;;13.27;7.32;;;;;;;;;;5008642;28;20029;-60
2023/01/19 00:22:09;;;;;;;10.70;6.40;;;;;;;;;;5007726;28;20033;-61
2023/01/19 00:24:35;;;;;;;14.27;6.40;;;;;;;;;;5008289;28;20060;-60
2023/01/19 00:27:02;;;;;;;13.88;6.22;;;;;;;;;;5007537;28;20045;-61
2023/01/19 00:29:32;;;;;;;15.73;7.18;;;;;;;;;;5008604;28;20450;-61
2023/01/19 00:31:59;;;;;;;12.45;6.80;;;;;;;;;;5006119;28;20486;-60
2023/01/19 00:34:24;;;;;;;14.30;6.78;;;;;;;;;;5008244;28;20064;-62
2023/01/19 00:36:50;;;;;;;12.32;6.47;;;;;;;;;;5006976;28;20069;-62
2023/01/19 00:39:15;;;;;;;17.08;7.57;;;;;;;;;;5008513;28;20392;-61
2023/01/19 00:44:24;;;;;;;11.90;7.05;;;;;;;;;;5011265;28;20065;-61
2023/01/19 00:46:49;;;;;;;12.23;6.35;;;;;;;;;;5011645;28;20491;-61
2023/01/19 00:49:15;;;;;;;14.15;7.03;;;;;;;;;;5012214;28;20037;-60
2023/01/19 00:51:40;;;;;;;12.98;7.22;;;;;;;;;;5011319;28;20021;-61
2023/01/19 00:54:09;;;;;;;15.00;6.70;;;;;;;;;;5011336;28;20037;-61
2023/01/19 00:56:35;;;;;;;10.20;6.32;;;;;;;;;;5011540;28;20109;-61
2023/01/19 00:59:00;;;;;;;13.27;6.65;;;;;;;;;;5012579;28;20022;-61
2023/01/19 01:01:26;;;;;;;20.30;6.55;;;;;;;;;;5009927;28;20088;-62
2023/01/19 01:03:54;;;;;;;13.27;6.80;;;;;;;;;;5011975;28;20041;-62
2023/01/19 01:06:22;;;;;;;17.90;10.48;;;;;;;;;;5010925;28;20040;-61
2023/01/19 01:08:47;;;;;;;16.00;10.27;;;;;;;;;;5012387;28;20025;-61
2023/01/19 01:11:12;;;;;;;21.42;6.95;;;;;;;;;;5012339;28;20029;-62
2023/01/19 01:13:38;;;;;;;20.77;8.35;;;;;;;;;;5027204;28;20088;-62
2023/01/19 01:16:04;;;;;;;19.08;8.10;;;;;;;;;;5010530;28;20100;-61
2023/01/19 01:18:29;;;;;;;16.88;9.45;;;;;;;;;;5009428;28;20026;-61
2023/01/19 01:21:02;;;;;;;21.17;8.90;;;;;;;;;;5010554;28;20046;-61
2023/01/19 01:23:28;;;;;;;23.60;9.07;;;;;;;;;;5010614;28;20068;-61
2023/01/19 01:25:53;;;;;;;16.13;8.70;;;;;;;;;;5010054;28;20547;-62
2023/01/19 01:28:18;;;;;;;18.23;8.73;;;;;;;;;;5010213;28;20030;-61
2023/01/19 01:30:44;;;;;;;12.63;6.95;;;;;;;;;;5010717;28;20025;-61
2023/01/19 01:33:10;;;;;;;14.52;7.07;;;;;;;;;;5009447;28;20064;-62
2023/01/19 01:35:36;;;;;;;13.20;6.78;;;;;;;;;;5010018;28;20121;-62
2023/01/19 01:38:02;;;;;;;11.20;5.97;;;;;;;;;;5004753;28;20125;-60
2023/01/19 01:40:27;;;;;;;11.85;6.95;;;;;;;;;;5010487;28;20053;-62
2023/01/19 01:42:53;;;;;;;14.23;7.53;;;;;;;;;;5007823;28;20526;-61
2023/01/19 01:45:21;;;;;;;13.00;6.45;;;;;;;;;;5007405;28;20030;-62
2023/01/19 01:47:49;;;;;;;12.95;6.88;;;;;;;;;;5023674;28;20460;-61
2023/01/19 01:50:14;;;;;;;14.75;6.82;;;;;;;;;;5009771;28;20080;-61
2023/01/19 01:52:46;;;;;;;12.52;6.45;;;;;;;;;;5010640;28;20018;-61
2023/01/19 01:55:12;;;;;;;15.75;7.18;;;;;;;;;;5011011;28;20025;-61
2023/01/19 01:57:42;;;;;;;14.57;6.88;;;;;;;;;;5022773;28;20029;-61
2023/01/19 02:00:08;;;;;;;17.27;6.95;;;;;;;;;;5010766;28;20180;-62
2023/01/19 02:02:50;;;;;;;16.80;7.55;;;;;;;;;;5009828;28;20117;-61
2023/01/19 02:05:21;;;;;;;12.50;7.20;;;;;;;;;;5011124;28;20080;-61
2023/01/19 02:13:28;;;;;;;12.90;6.97;;;;;;;;;;5010622;28;20075;-61
2023/01/19 02:15:59;;;;;;;14.73;6.50;;;;;;;;;;5009345;28;20499;-62
2023/01/19 02:18:29;;;;;;;14.32;6.65;;;;;;;;;;5010549;28;20037;-61
2023/01/19 02:21:21;;;;;;;13.30;6.88;;;;;;;;;;5024725;28;20651;-61
2023/01/19 02:23:52;;;;;;;12.77;6.15;;;;;;;;;;5009293;28;20025;-61
2023/01/19 02:26:49;;;;;;;12.82;6.60;;;;;;;;;;5008724;28;20078;-61
2023/01/19 02:29:18;;;;;;;17.00;6.07;;;;;;;;;;5007907;28;20049;-61
2023/01/19 02:31:44;;;;;;;15.68;7.10;;;;;;;;;;5008199;28;20494;-60
2023/01/19 02:34:14;;;;;;;13.07;6.45;;;;;;;;;;5009085;28;20042;-61
2023/01/19 02:36:56;;;;;;;13.35;6.32;;;;;;;;;;5006949;28;20026;-61
2023/01/19 02:39:28;;;;;;;14.85;6.53;;;;;;;;;;5007458;28;20034;-61
2023/01/19 02:42:00;;;;;;;15.07;6.20;;;;;;;;;;5008584;28;20034;-61
2023/01/19 02:44:26;;;;;;;14.13;6.05;;;;;;;;;;5009688;28;20105;-61
2023/01/19 02:46:55;;;;;;;15.52;6.00;;;;;;;;;;5007444;28;20523;-62
2023/01/19 02:49:20;;;;;;;11.60;6.40;;;;;;;;;;5009600;28;20399;-61
2023/01/19 02:51:46;;;;;;;10.13;5.68;;;;;;;;;;5008151;28;20026;-61
2023/01/19 02:54:35;;;;;;;12.93;6.32;;;;;;;;;;5008680;28;20104;-61
2023/01/19 02:57:33;;;;;;;11.63;6.25;;;;;;;;;;5001879;28;20026;-61
2023/01/19 03:00:01;;;;;;;10.98;5.28;;;;;;;;;;5008851;28;20388;-61
2023/01/19 03:02:51;;;;;;;12.88;6.05;;;;;;;;;;5008521;28;20113;-61
2023/01/19 03:05:25;;;;;;;13.95;6.10;;;;;;;;;;5005704;28;20072;-61
2023/01/19 03:08:27;;;;;;;12.32;5.93;;;;;;;;;;5008045;28;20042;-61
2023/01/19 03:11:04;;;;;;;14.75;6.15;;;;;;;;;;4989001;28;20063;-61
2023/01/19 03:13:53;;;;;;;13.65;6.65;;;;;;;;;;5008532;28;20033;-61
2023/01/19 03:16:32;;;;;;;17.05;6.70;;;;;;;;;;5008423;28;20076;-61
2023/01/19 03:19:09;;;;;;;10.52;6.50;;;;;;;;;;5008892;28;20087;-61
2023/01/19 03:21:37;;;;;;;12.50;6.38;;;;;;;;;;5006666;28;20117;-60
2023/01/19 03:24:07;;;;;;;12.40;6.68;;;;;;;;;;5008881;28;20030;-62
2023/01/19 03:26:37;;;;;;;12.50;6.85;;;;;;;;;;5004874;28;20048;-61
2023/01/19 03:29:07;;;;;;;13.50;6.82;;;;;;;;;;5008335;28;20515;-61
2023/01/19 03:31:33;;;;;;;12.68;6.03;;;;;;;;;;5008772;28;20026;-61
2023/01/19 03:34:04;;;;;;;12.57;6.60;;;;;;;;;;5008032;28;20040;-62
2023/01/19 03:36:47;;;;;;;11.30;5.68;;;;;;;;;;5007978;28;20045;-61
2023/01/19 03:39:20;;;;;;;14.23;6.18;;;;;;;;;;5008121;28;20688;-61
2023/01/19 03:41:47;;;;;;;10.77;6.50;;;;;;;;;;5008775;28;20026;-61
2023/01/19 03:44:13;;;;;;;12.18;7.13;;;;;;;;;;5007859;28;20553;-62
2023/01/19 03:46:39;;;;;;;13.50;7.15;;;;;;;;;;5007678;28;20073;-62
2023/01/19 03:49:06;;;;;;;12.43;6.03;;;;;;;;;;5009542;28;20038;-61
2023/01/19 03:51:35;;;;;;;12.82;6.65;;;;;;;;;;5009388;28;20032;-62
2023/01/19 03:54:00;;;;;;;12.53;6.37;;;;;;;;;;5009644;28;20030;-62
2023/01/19 03:56:26;;;;;;;11.10;6.40;;;;;;;;;;5008624;28;20762;-62
2023/01/19 03:58:51;;;;;;;11.93;6.05;;;;;;;;;;5009534;28;20038;-60
2023/01/19 04:01:21;;;;;;;14.05;6.60;;;;;;;;;;5024197;28;20553;-61
2023/01/19 04:03:50;;;;;;;15.95;6.03;;;;;;;;;;5008307;28;20030;-61
2023/01/19 04:06:17;;;;;;;12.80;6.28;;;;;;;;;;5008325;28;20064;-62
2023/01/19 04:08:43;;;;;;;12.23;5.55;;;;;;;;;;5009257;28;20429;-59
2023/01/19 04:11:08;;;;;;;14.93;6.07;;;;;;;;;;5009307;28;20105;-63
2023/01/19 04:13:34;;;;;;;12.77;5.53;;;;;;;;;;5008723;28;20738;-60
2023/01/19 04:16:00;;;;;;;13.95;6.32;;;;;;;;;;5007266;28;20034;-62
2023/01/19 04:18:30;;;;;;;14.07;6.03;;;;;;;;;;5010259;28;20026;-62
2023/01/19 04:20:59;;;;;;;;;;;;;;;;;;5009262;28;20084;-60
2023/01/19 04:23:25;;;;;;;12.93;5.57;;;;;;;;;;5007552;28;19917;-62
2023/01/19 04:25:59;;;;;;;10.15;5.13;;;;;;;;;;5012312;28;20052;-62
2023/01/19 04:28:25;;;;;;;9.20;5.38;;;;;;;;;;5027169;28;20037;-62
2023/01/19 04:30:51;;;;;;;10.43;5.20;;;;;;;;;;5012042;28;20113;-62
2023/01/19 04:33:17;;;;;;;8.07;5.00;;;;;;;;;;5010897;28;20125;-61
2023/01/19 04:35:44;;;;;;;9.25;5.20;;;;;;;;;;5010847;28;20029;-61
2023/01/19 04:38:09;;;;;;;9.18;4.55;;;;;;;;;;5011511;28;20503;-61
2023/01/19 04:40:34;;;;;;;10.52;4.60;;;;;;;;;;5011292;28;20072;-61
2023/01/19 04:43:00;;;;;;;8.80;4.95;;;;;;;;;;5010820;28;20121;-61
2023/01/19 04:45:25;;;;;;;8.43;4.75;;;;;;;;;;5011195;28;20577;-61
2023/01/19 04:47:50;;;;;;;12.48;4.68;;;;;;;;;;5023896;28;20026;-61
2023/01/19 04:50:16;;;;;;;8.23;5.43;;;;;;;;;;5009429;28;20021;-61
2023/01/19 04:52:41;;;;;;;9.45;5.10;;;;;;;;;;5011037;28;20030;-61
2023/01/19 04:55:07;;;;;;;7.45;4.43;;;;;;;;;;5010413;28;20165;-61
2023/01/19 04:57:33;;;;;;;7.50;4.55;;;;;;;;;;5010760;28;20037;-60
2023/01/19 04:59:58;;;;;;;9.32;5.03;;;;;;;;;;5011304;28;20026;-61
2023/01/19 05:02:24;;;;;;;10.98;5.45;;;;;;;;;;5010849;28;20022;-60
2023/01/19 05:04:50;;;;;;;11.13;4.80;;;;;;;;;;5010694;28;20119;-62
2023/01/19 05:07:15;;;;;;;11.20;4.90;;;;;;;;;;5010463;28;20036;-62
2023/01/19 05:09:41;;;;;;;12.35;6.25;;;;;;;;;;5011199;28;20029;-63
2023/01/19 05:12:07;;;;;;;15.50;6.82;;;;;;;;;;5010443;28;20109;-61
2023/01/19 05:14:32;;;;;;;12.52;5.85;;;;;;;;;;5009068;28;20038;-62
2023/01/19 05:16:58;;;;;;;14.27;6.93;;;;;;;;;;5009926;28;20041;-62
2023/01/19 05:19:23;;;;;;;10.05;6.03;;;;;;;;;;5007730;28;20029;-60
2023/01/19 05:21:49;;;;;;;11.00;5.90;;;;;;;;;;5009400;28;20045;-61
2023/01/19 05:24:14;;;;;;;10.75;5.88;;;;;;;;;;5006286;28;20033;-60
2023/01/19 05:26:40;;;;;;;10.00;5.60;;;;;;;;;;5006452;28;20114;-61
2023/01/19 05:29:05;;;;;;;12.45;4.88;;;;;;;;;;5010963;28;20048;-62
2023/01/19 05:31:31;;;;;;;8.45;4.72;;;;;;;;;;5010898;28;20033;-63
2023/01/19 05:33:56;;;;;;;7.80;5.05;;;;;;;;;;5010765;28;20057;-62
2023/01/19 05:36:22;;;;;;;9.60;4.78;;;;;;;;;;5009968;28;20342;-63
2023/01/19 05:38:47;;;;;;;7.68;3.85;;;;;;;;;;5008699;28;20121;-59
2023/01/19 05:41:13;;;;;;;10.52;5.47;;;;;;;;;;5010953;28;20057;-59
2023/01/19 05:43:38;;;;;;;62.25;7.97;;;;;;;;;;5009636;28;20115;-59
2023/01/19 05:46:04;;;;;;;10.98;6.32;;;;;;;;;;5010561;28;20461;-60
2023/01/19 05:48:29;;;;;;;7.70;4.88;;;;;;;;;;5011367;28;20022;-59
2023/01/19 05:50:59;;;;;;;8.18;4.18;;;;;;;;;;5010851;28;20384;-62
2023/01/19 05:53:25;;;;;;;7.65;4.93;;;;;;;;;;5010507;28;20026;-61
2023/01/19 05:55:50;;;;;;;7.53;4.65;;;;;;;;;;5009953;28;20070;-61
2023/01/19 05:58:15;;;;;;;10.18;4.93;;;;;;;;;;5009413;28;20060;-61
2023/01/19 06:00:41;;;;;;;8.82;5.03;;;;;;;;;;5005231;28;20034;-61
2023/01/19 06:03:06;;;;;;;7.55;4.00;;;;;;;;;;5010716;28;20399;-60
2023/01/19 06:05:32;;;;;;;7.25;4.00;;;;;;;;;;5011024;28;20034;-61
2023/01/19 06:07:58;;;;;;;7.15;4.10;;;;;;;;;;5008780;28;20037;-61
2023/01/19 06:10:23;;;;;;;7.25;4.05;;;;;;;;;;5011317;28;20022;-61
2023/01/19 06:12:50;;;;;;;7.32;3.67;;;;;;;;;;5011019;28;20042;-61
2023/01/19 06:15:16;;;;;;;7.55;3.95;;;;;;;;;;5010757;28;20511;-62
2023/01/19 06:17:41;;;;;;;7.15;3.83;;;;;;;;;;5010491;28;20034;-60
2023/01/19 06:20:08;;;;;;;6.45;3.90;;;;;;;;;;5008545;28;20052;-61
2023/01/19 06:22:33;;;;;;;5.30;3.72;;;;;;;;;;5005854;28;20048;-61
2023/01/19 06:24:59;;;;;;;9.07;4.03;;;;;;;;;;5007310;28;20033;-60
2023/01/19 06:27:24;;;;;;;8.82;4.43;;;;;;;;;;5009625;28;20029;-62
2023/01/19 06:29:50;;;;;;;7.32;4.13;;;;;;;;;;5010295;28;20773;-61
2023/01/19 06:32:16;;;;;;;7.03;4.28;;;;;;;;;;5009406;28;20083;-61
2023/01/19 06:34:42;;;;;;;6.07;3.65;;;;;;;;;;5010644;28;20029;-60
2023/01/19 06:37:10;;;;;;;5.50;3.80;;;;;;;;;;5007243;28;20554;-60
2023/01/19 06:39:36;;;;;;;6.93;3.80;;;;;;;;;;5010529;28;20030;-61
2023/01/19 06:42:02;;;;;;;6.10;3.58;;;;;;;;;;5005143;28;20061;-61
2023/01/19 06:44:28;;;;;;;5.25;4.20;;;;;;;;;;5009436;28;20080;-61
2023/01/19 06:46:53;;;;;;;6.00;3.30;;;;;;;;;;5007905;28;20030;-61
2023/01/19 06:49:19;;;;;;;6.10;3.08;;;;;;;;;;5009279;28;20029;-60
2023/01/19 06:51:44;;;;;;;4.95;3.15;;;;;;;;;;5007829;28;20029;-61
2023/01/19 06:54:09;;;;;;;5.40;3.22;;;;;;;;;;5008857;28;20415;-61
2023/01/19 06:56:35;;;;;;;9.00;3.70;;;;;;;;;;5008780;28;20049;-62
2023/01/19 06:59:00;;;;;;;7.90;4.35;;;;;;;;;;5007768;28;20046;-61
2023/01/19 07:01:26;;;;;;;8.13;4.75;;;;;;;;;;5011160;28;20487;-61
2023/01/19 07:03:51;;;;;;;6.47;3.92;;;;;;;;;;5009792;28;20026;-61
2023/01/19 07:06:17;;;;;;;6.28;3.95;;;;;;;;;;5007873;28;20050;-60
2023/01/19 07:08:42;;;;;;;7.72;4.07;;;;;;;;;;5008600;28;20400;-61
2023/01/19 07:11:10;;;;;;;5.57;3.45;;;;;;;;;;5009058;28;20117;-61
2023/01/19 07:13:38;;;;;;;7.80;4.57;;;;;;;;;;5009075;28;20456;-61
2023/01/19 07:16:07;;;;;;;7.22;4.32;;;;;;;;;;5008297;28;20112;-61
2023/01/19 07:18:33;;;;;;;;;;;;;;;;;;5009320;28;20026;-62
2023/01/19 07:20:59;;;;;;;7.30;4.60;;;;;;;;;;5009059;28;19928;-59
2023/01/19 07:23:25;;;;;;;9.05;5.75;;;;;;;;;;5009219;28;20030;-61
2023/01/19 07:25:50;;;;;;;7.85;5.40;;;;;;;;;;5006175;28;20613;-62
2023/01/19 07:28:16;;;;;;;8.18;4.68;;;;;;;;;;5009105;28;20092;-61
2023/01/19 07:30:42;;;;;;;7.15;4.32;;;;;;;;;;5011113;28;20079;-62
2023/01/19 07:33:08;;;;;;;6.00;4.15;;;;;;;;;;5020755;28;20074;-61
2023/01/19 07:35:33;;;;;;;7.57;4.18;;;;;;;;;;5022517;28;20440;-61
2023/01/19 07:37:59;;;;;;;7.47;4.50;;;;;;;;;;5007354;28;20487;-61
2023/01/19 07:40:24;;;;;;;8.30;4.18;;;;;;;;;;5008785;28;20472;-62
2023/01/19 07:42:50;;;;;;;5.13;3.53;;;;;;;;;;4998807;28;20057;-61
2023/01/19 07:45:18;;;;;;;6.05;3.08;;;;;;;;;;5020526;28;20026;-61
2023/01/19 07:47:44;;;;;;;5.45;3.40;;;;;;;;;;5006929;28;20553;-61
2023/01/19 07:50:12;;;;;;;7.13;3.88;;;;;;;;;;5006227;28;20037;-62
2023/01/19 07:52:37;;;;;;;5.90;3.40;;;;;;;;;;5010884;28;20390;-61
2023/01/19 07:55:03;;;;;;;10.95;5.05;;;;;;;;;;5010689;28;20034;-61
2023/01/19 07:57:28;;;;;;;10.32;5.13;;;;;;;;;;5009548;28;20117;-61
2023/01/19 07:59:54;;;;;;;11.43;5.35;;;;;;;;;;5010745;28;20026;-61
2023/01/19 08:02:19;;;;;;;7.85;4.57;;;;;;;;;;5007188;28;20026;-61
2023/01/19 08:04:47;;;;;;;6.28;3.50;;;;;;;;;;5010971;28;20030;-60
2023/01/19 08:07:12;;;;;;;7.35;4.22;;;;;;;;;;5009591;28;20498;-61
2023/01/19 08:09:38;;;;;;;6.88;4.00;;;;;;;;;;5010923;28;20033;-61
2023/01/19 08:12:03;;;;;;;5.00;3.00;;;;;;;;;;5012469;28;20030;-61
2023/01/19 08:14:29;;;;;;;7.07;3.28;;;;;;;;;;5012323;28;20033;-61
2023/01/19 08:16:58;;;;;;;6.70;3.00;;;;;;;;;;5011816;28;20033;-61
2023/01/19 08:19:23;;;;;;;6.57;3.23;;;;;;;;;;5012101;28;20025;-60
2023/01/19 08:21:49;;;;;;;4.03;3.10;;;;;;;;;;5012365;28;20099;-61
2023/01/19 08:24:20;;;;;;;5.75;3.45;;;;;;;;;;5012141;28;20037;-60
2023/01/19 08:26:46;;;;;;;6.10;3.65;;;;;;;;;;5011936;28;20025;-61
2023/01/19 08:29:12;;;;;;;5.15;3.13;;;;;;;;;;5010008;28;20594;-61
2023/01/19 08:31:38;;;;;;;4.85;3.03;;;;;;;;;;5009079;28;20037;-59
2023/01/19 08:34:03;;;;;;;5.40;2.70;;;;;;;;;;5011094;28;20022;-61
2023/01/19 08:36:29;;;;;;;5.88;2.95;;;;;;;;;;5011708;28;20072;-61
2023/01/19 08:38:54;;;;;;;7.00;3.75;;;;;;;;;;5012396;28;20559;-61
2023/01/19 08:41:21;;;;;;;7.22;4.13;;;;;;;;;;5010185;28;20032;-58
2023/01/19 08:43:46;;;;;;;5.35;2.72;;;;;;;;;;5007507;28;20487;-61
2023/01/19 08:46:16;;;;;;;5.10;3.28;;;;;;;;;;5008191;28;20076;-61
2023/01/19 08:48:42;;;;;;;5.10;2.95;;;;;;;;;;5010057;28;20034;-60
2023/01/19 08:51:08;;;;;;;3.85;2.80;;;;;;;;;;5010965;28;20454;-61
2023/01/19 08:53:33;;;;;;;2.65;2.38;;;;;;;;;;5009791;28;20156;-61
2023/01/19 08:56:00;;;;;;;3.67;3.03;;;;;;;;;;5007548;28;20519;-61
2023/01/19 08:58:26;;;;;;;4.13;2.80;;;;;;;;;;5010454;28;20109;-61
2023/01/19 09:00:51;;;;;;;4.30;2.42;;;;;;;;;;5009320;28;20069;-62
2023/01/19 09:03:18;;;;;;;4.80;2.97;;;;;;;;;;5008165;28;20057;-62
2023/01/19 09:05:44;;;;;;;6.65;3.80;;;;;;;;;;5009752;28;20026;-61
2023/01/19 09:08:12;;;;;;;4.90;3.20;;;;;;;;;;5008357;28;20041;-61
2023/01/19 09:10:38;;;;;;;7.80;3.65;;;;;;;;;;5011093;28;20030;-61
2023/01/19 09:13:07;;;;;;;6.68;4.15;;;;;;;;;;5010719;28;20435;-62
2023/01/19 09:15:34;;;;;;;5.95;3.70;;;;;;;;;;5008895;28;20076;-61
2023/01/19 09:18:01;;;;;;;7.03;4.22;;;;;;;;;;5008395;28;20588;-62
2023/01/19 09:20:27;;;;;;;6.80;3.38;;;;;;;;;;5011579;28;20041;-61
2023/01/19 09:22:54;;;;;;;5.43;3.80;;;;;;;;;;5011152;28;20483;-62
2023/01/19 09:25:20;;;;;;;8.13;3.78;;;;;;;;;;5010915;28;20033;-61
2023/01/19 09:27:45;;;;;;;6.03;3.78;;;;;;;;;;5009851;28;20087;-61
2023/01/19 09:30:11;;;;;;;4.80;3.20;;;;;;;;;;5006795;28;20109;-61
2023/01/19 09:32:36;;;;;;;6.00;3.28;;;;;;;;;;5008072;28;20021;-60
2023/01/19 09:35:02;;;;;;;5.82;3.28;;;;;;;;;;5011274;28;20751;-59
2023/01/19 09:37:27;;;;;;;5.72;3.70;;;;;;;;;;5010470;28;20041;-59
2023/01/19 09:39:53;;;;;;;4.57;3.55;;;;;;;;;;5010766;28;20095;-59
2023/01/19 09:42:37;;;;;;;5.50;3.10;;;;;;;;;;5009631;28;20522;-60
2023/01/19 09:45:09;;;;;;;3.75;2.65;;;;;;;;;;5008820;28;20037;-59
2023/01/19 09:47:36;;;;;;;4.40;3.28;;;;;;;;;;5008985;28;20034;-60
2023/01/19 09:50:15;;;;;;;3.97;2.92;;;;;;;;;;5011394;28;20049;-60
2023/01/19 09:52:43;;;;;;;4.18;3.00;;;;;;;;;;5009967;28;20032;-60
2023/01/19 09:55:26;;;;;;;3.70;2.55;;;;;;;;;;5011277;28;20148;-60
2023/01/19 09:57:52;;;;;;;7.70;3.08;;;;;;;;;;5010035;28;20048;-60
2023/01/19 10:00:19;;;;;;;4.28;2.85;;;;;;;;;;5010591;28;20022;-59
2023/01/19 10:03:14;;;;;;;4.03;2.60;;;;;;;;;;5007744;28;20022;-62
2023/01/19 10:06:02;;;;;;;4.40;3.00;;;;;;;;;;5006598;28;20099;-61
2023/01/19 10:08:30;;;;;;;3.50;2.42;;;;;;;;;;5010405;28;20028;-61
2023/01/19 10:10:57;;;;;;;3.55;2.35;;;;;;;;;;5010762;28;20045;-61
2023/01/19 10:13:39;;;;;;;5.40;2.80;;;;;;;;;;5008644;28;20503;-62
2023/01/19 10:16:30;;;;;;;6.57;3.05;;;;;;;;;;5007711;28;20113;-63
2023/01/19 10:19:07;;;;;;;5.28;3.10;;;;;;;;;;5009897;28;20052;-61
2023/01/19 10:21:39;;;;;;;4.90;3.60;;;;;;;;;;5010039;28;20034;-62
2023/01/19 10:24:20;;;;;;;5.60;3.47;;;;;;;;;;5010027;28;20181;-61
2023/01/19 10:26:51;;;;;;;5.68;3.53;;;;;;;;;;5009619;28;20029;-61
2023/01/19 10:29:36;;;;;;;4.05;2.90;;;;;;;;;;5009715;28;20491;-62
2023/01/19 10:32:07;;;;;;;5.72;3.08;;;;;;;;;;5004342;28;20514;-61
2023/01/19 10:34:33;;;;;;;4.80;3.40;;;;;;;;;;5009592;28;20091;-62
2023/01/19 10:37:24;;;;;;;3.42;2.60;;;;;;;;;;5024335;28;20503;-61
2023/01/19 10:39:55;;;;;;;7.88;3.20;;;;;;;;;;5001571;28;20469;-61
2023/01/19 10:42:20;;;;;;;3.25;2.88;;;;;;;;;;5007869;28;20108;-62
2023/01/19 10:44:45;;;;;;;3.58;3.10;;;;;;;;;;5007501;28;20112;-63
2023/01/19 10:47:19;;;;;;;5.80;3.33;;;;;;;;;;5008302;28;20032;-62
2023/01/19 10:49:46;;;;;;;5.25;3.15;;;;;;;;;;5009316;28;20041;-62
2023/01/19 10:52:27;;;;;;;6.85;3.60;;;;;;;;;;5009746;28;20021;-62
2023/01/19 10:54:53;;;;;;;5.93;2.95;;;;;;;;;;5009784;28;20103;-61
2023/01/19 10:57:27;;;;;;;7.80;4.25;;;;;;;;;;5007717;28;20037;-62
2023/01/19 10:59:52;;;;;;;5.45;3.63;;;;;;;;;;5006409;28;20021;-62
2023/01/19 11:02:22;;;;;;;4.15;2.88;;;;;;;;;;5007249;28;20498;-62
2023/01/19 11:04:48;;;;;;;;;;;;;;;;;;5006765;28;20029;-63
2023/01/19 11:07:27;;;;;;;3.95;3.00;;;;;;;;;;5008145;28;19960;-62
2023/01/19 11:10:14;;;;;;;3.55;2.92;;;;;;;;;;5007856;28;20068;-62
2023/01/19 11:13:06;;;;;;;4.63;3.35;;;;;;;;;;5006536;28;20076;-63
2023/01/19 11:15:39;;;;;;;4.07;3.10;;;;;;;;;;5006516;28;20028;-63
2023/01/19 11:18:05;;;;;;;7.03;3.70;;;;;;;;;;5006333;28;20065;-61
2023/01/19 11:21:02;;;;;;;6.80;3.90;;;;;;;;;;5007625;28;20037;-62
2023/01/19 11:23:27;;;;;;;5.93;3.60;;;;;;;;;;4998430;28;20136;-60
2023/01/19 11:25:57;;;;;;;4.78;3.80;;;;;;;;;;5006585;28;20637;-61
2023/01/19 11:28:46;;;;;;;7.07;4.00;;;;;;;;;;5006645;28;20029;-60
2023/01/19 11:31:14;;;;;;;6.85;3.88;;;;;;;;;;5005932;28;20038;-61
2023/01/19 11:33:45;;;;;;;9.60;4.45;;;;;;;;;;5005504;28;20036;-61
2023/01/19 11:36:26;;;;;;;5.10;3.72;;;;;;;;;;5007948;28;20033;-61
2023/01/19 11:38:54;;;;;;;5.60;4.03;;;;;;;;;;5008320;28;20042;-61
2023/01/19 11:41:23;;;;;;;6.25;3.60;;;;;;;;;;5007454;28;20028;-61
2023/01/19 11:43:52;;;;;;;7.13;3.65;;;;;;;;;;5008137;28;20033;-60
2023/01/19 11:46:18;;;;;;;6.20;4.13;;;;;;;;;;5006973;28;20030;-61
2023/01/19 11:49:01;;;;;;;8.48;4.78;;;;;;;;;;5008163;28;20088;-61
2023/01/19 11:51:42;;;;;;;7.47;4.18;;;;;;;;;;5007804;28;20014;-61
2023/01/19 11:54:18;;;;;;;8.85;4.50;;;;;;;;;;4993825;28;20509;-60
2023/01/19 11:56:47;;;;;;;9.07;4.53;;;;;;;;;;5005967;28;20018;-60
2023/01/19 11:59:13;;;;;;;8.07;4.10;;;;;;;;;;5008320;28;20498;-60
2023/01/19 12:01:45;;;;;;;6.90;4.78;;;;;;;;;;5007573;28;20034;-60
2023/01/19 12:04:29;;;;;;;9.07;4.70;;;;;;;;;;5006704;28;20034;-60
2023/01/19 12:06:57;;;;;;;8.35;5.00;;;;;;;;;;5006893;28;20032;-61
2023/01/19 12:09:27;;;;;;;8.80;5.03;;;;;;;;;;5005651;28;20025;-60
2023/01/19 12:11:59;;;;;;;7.75;5.03;;;;;;;;;;5005559;28;20076;-60
2023/01/19 12:14:36;;;;;;;10.65;5.68;;;;;;;;;;5006841;28;20026;-60
2023/01/19 12:17:04;;;;;;;11.98;5.32;;;;;;;;;;5004798;28;20018;-60
2023/01/19 12:19:49;;;;;;;11.43;6.07;;;;;;;;;;5007734;28;20030;-61
2023/01/19 12:22:16;;;;;;;11.65;6.68;;;;;;;;;;5007430;28;20033;-61
2023/01/19 12:24:53;;;;;;;9.88;5.13;;;;;;;;;;5006031;28;20033;-60
2023/01/19 12:27:36;;;;;;;11.80;6.18;;;;;;;;;;5006666;28;20026;-59
2023/01/19 12:30:02;;;;;;;12.90;5.75;;;;;;;;;;5008547;28;20458;-60
2023/01/19 12:32:33;;;;;;;8.85;5.35;;;;;;;;;;5007650;28;20631;-61
2023/01/19 12:34:58;;;;;;;14.23;6.00;;;;;;;;;;5006568;28;20583;-60
2023/01/19 12:37:29;;;;;;;12.15;6.05;;;;;;;;;;5007940;28;20106;-60
2023/01/19 12:40:01;;;;;;;11.00;5.90;;;;;;;;;;5010624;28;20033;-60
2023/01/19 12:42:27;;;;;;;20.10;6.30;;;;;;;;;;5011666;28;20029;-60
2023/01/19 12:45:04;;;;;;;10.75;5.70;;;;;;;;;;5011165;28;20049;-59
2023/01/19 12:47:30;;;;;;;11.18;5.95;;;;;;;;;;5009773;28;20117;-60
2023/01/19 12:50:05;;;;;;;14.23;6.22;;;;;;;;;;5027009;28;20113;-60
2023/01/19 12:52:35;;;;;;;12.32;5.40;;;;;;;;;;5011047;28;20021;-59
2023/01/19 12:55:12;;;;;;;10.45;5.45;;;;;;;;;;5010604;28;20727;-59
2023/01/19 12:57:54;;;;;;;14.07;6.93;;;;;;;;;;5009124;28;20117;-60
2023/01/19 13:00:22;;;;;;;15.95;7.45;;;;;;;;;;5008935;28;20065;-59
2023/01/19 13:02:48;;;;;;;9.93;6.43;;;;;;;;;;5009554;28;20026;-59
2023/01/19 13:05:38;;;;;;;14.43;7.63;;;;;;;;;;5009696;28;20507;-59
2023/01/19 13:08:09;;;;;;;14.45;7.40;;;;;;;;;;5009054;28;20034;-59
2023/01/19 13:11:01;;;;;;;15.15;7.63;;;;;;;;;;5009889;28;20174;-60
2023/01/19 13:13:48;;;;;;;15.35;7.32;;;;;;;;;;5008091;28;20502;-61
2023/01/19 13:16:17;;;;;;;19.00;8.45;;;;;;;;;;5008918;28;20070;-59
2023/01/19 13:19:04;;;;;;;18.83;7.78;;;;;;;;;;5009728;28;20070;-59
2023/01/19 13:21:34;;;;;;;15.00;6.53;;;;;;;;;;5009271;28;20030;-60
2023/01/19 13:24:05;;;;;;;13.15;7.05;;;;;;;;;;5009474;28;20034;-60
2023/01/19 13:26:33;;;;;;;13.70;7.18;;;;;;;;;;5008255;28;20102;-59
2023/01/19 13:29:09;;;;;;;15.77;7.60;;;;;;;;;;5010326;28;20076;-59
2023/01/19 13:31:37;;;;;;;16.70;7.55;;;;;;;;;;5010422;28;20032;-59
2023/01/19 13:34:09;;;;;;;15.13;7.72;;;;;;;;;;5009846;28;20531;-59
2023/01/19 13:36:39;;;;;;;22.83;9.95;;;;;;;;;;5010040;28;20022;-59
2023/01/19 13:39:11;;;;;;;20.10;9.27;;;;;;;;;;5009424;28;20104;-60
2023/01/19 13:41:38;;;;;;;16.02;7.93;;;;;;;;;;5010027;28;20033;-60
2023/01/19 13:44:20;;;;;;;17.38;7.97;;;;;;;;;;5011173;28;20054;-60
2023/01/19 13:46:47;;;;;;;17.52;7.93;;;;;;;;;;5010750;28;20058;-60
2023/01/19 13:49:31;;;;;;;21.67;8.27;;;;;;;;;;5010082;28;20410;-60
2023/01/19 13:52:06;;;;;;;12.75;6.90;;;;;;;;;;5007919;28;20549;-60
2023/01/19 13:54:32;;;;;;;16.95;8.23;;;;;;;;;;5009136;28;20038;-60
2023/01/19 13:56:57;;;;;;;15.85;8.73;;;;;;;;;;5008434;28;20029;-60
2023/01/19 13:59:23;;;;;;;18.90;8.43;;;;;;;;;;5009563;28;20042;-60
2023/01/19 14:01:50;;;;;;;16.88;7.63;;;;;;;;;;5008036;28;20589;-59
2023/01/19 14:04:28;;;;;;;20.88;8.75;;;;;;;;;;5008964;28;20050;-60
2023/01/19 14:06:57;;;;;;;19.40;7.95;;;;;;;;;;5008429;28;20066;-60
2023/01/19 14:09:23;;;;;;;16.65;7.28;;;;;;;;;;5007941;28;20031;-60
2023/01/19 14:12:10;;;;;;;15.57;7.63;;;;;;;;;;5008627;28;20119;-60
2023/01/19 14:14:35;;;;;;;20.80;8.95;;;;;;;;;;5008520;28;20120;-60
2023/01/19 14:17:01;;;;;;;18.42;7.55;;;;;;;;;;5008455;28;20574;-60
2023/01/19 14:19:52;;;;;;;23.13;7.70;;;;;;;;;;5008091;28;20160;-60
2023/01/19 14:22:18;;;;;;;15.80;7.32;;;;;;;;;;5006652;28;20045;-61
2023/01/19 14:24:43;;;;;;;16.27;7.90;;;;;;;;;;5009102;28;20045;-60
2023/01/19 14:27:20;;;;;;;18.20;8.02;;;;;;;;;;5007789;28;20061;-61
2023/01/19 14:29:49;;;;;;;15.27;8.10;;;;;;;;;;5006924;28;20028;-60
2023/01/19 14:32:19;;;;;;;21.33;7.87;;;;;;;;;;5008046;28;20022;-61
2023/01/19 14:34:49;;;;;;;17.00;6.80;;;;;;;;;;5009264;28;20037;-60
2023/01/19 14:37:33;;;;;;;15.00;7.13;;;;;;;;;;5007993;28;20029;-60
2023/01/19 14:40:09;;;;;;;21.08;8.85;;;;;;;;;;5008712;28;20172;-61
2023/01/19 14:42:37;;;;;;;12.82;6.05;;;;;;;;;;5009658;28;20028;-60
2023/01/19 14:45:11;;;;;;;18.92;7.75;;;;;;;;;;5008497;28;20033;-60
2023/01/19 14:47:40;;;;;;;11.82;5.80;;;;;;;;;;5007600;28;20037;-60
2023/01/19 14:50:27;;;;;;;22.95;9.20;;;;;;;;;;5008604;28;20046;-60
2023/01/19 14:53:03;;;;;;;17.50;7.50;;;;;;;;;;5009395;28;20025;-60
2023/01/19 14:55:54;;;;;;;15.70;7.28;;;;;;;;;;5008207;28;20065;-60
2023/01/19 14:58:22;;;;;;;14.50;6.60;;;;;;;;;;5006518;28;20100;-60